sensor_id;sensor_type;location;lat;lon;timestamp;pressure;altitude;pressure_sealevel;temperature;humidity
23016;BME280;11674;52.428;13.584;2022-09-03T00:00:53;101646.50;;;16.01;46.58
23016;BME280;11674;52.428;13.584;2022-09-03T00:03:54;101649.41;;;15.96;46.87
23016;BME280;11674;52.428;13.584;2022-09-03T00:06:42;101646.03;;;15.94;46.90
23016;BME280;11674;52.428;13.584;2022-09-03T00:09:22;101633.50;;;15.91;47.02
23016;BME280;11674;52.428;13.584;2022-09-03T00:17:17;101637.72;;;15.89;47.11
23016;BME280;11674;52.428;13.584;2022-09-03T00:20:06;101640.84;;;15.87;47.05
23016;BME280;11674;52.428;13.584;2022-09-03T00:22:51;101638.06;;;15.87;46.89
23016;BME280;11674;52.428;13.584;2022-09-03T00:28:15;101629.53;;;15.79;47.23
23016;BME280;11674;52.428;13.584;2022-09-03T00:30:51;101638.50;;;15.76;46.96
23016;BME280;11674;52.428;13.584;2022-09-03T00:33:29;101639.09;;;15.73;47.42
23016;BME280;11674;52.428;13.584;2022-09-03T00:38:36;101647.28;;;15.69;47.56
23016;BME280;11674;52.428;13.584;2022-09-03T00:46:55;101637.00;;;15.65;47.38
23016;BME280;11674;52.428;13.584;2022-09-03T01:01:22;101629.06;;;15.53;47.56
23016;BME280;11674;52.428;13.584;2022-09-03T01:04:34;101627.41;;;15.52;48.04
23016;BME280;11674;52.428;13.584;2022-09-03T01:07:22;101623.78;;;15.52;47.88
23016;BME280;11674;52.428;13.584;2022-09-03T01:10:44;101622.09;;;15.51;48.03
23016;BME280;11674;52.428;13.584;2022-09-03T01:22:13;101610.69;;;15.47;48.17
23016;BME280;11674;52.428;13.584;2022-09-03T01:34:06;101615.00;;;15.40;48.42
23016;BME280;11674;52.428;13.584;2022-09-03T01:46:42;101615.66;;;15.32;48.78
23016;BME280;11674;52.428;13.584;2022-09-03T01:49:18;101611.19;;;15.31;48.95
23016;BME280;11674;52.428;13.584;2022-09-03T02:01:21;101623.50;;;15.30;48.71
23016;BME280;11674;52.428;13.584;2022-09-03T02:03:56;101609.50;;;15.30;49.03
23016;BME280;11674;52.428;13.584;2022-09-03T02:06:29;101620.19;;;15.28;49.03
23016;BME280;11674;52.428;13.584;2022-09-03T02:09:01;101616.53;;;15.27;49.27
23016;BME280;11674;52.428;13.584;2022-09-03T02:11:42;101617.38;;;15.28;49.60
23016;BME280;11674;52.428;13.584;2022-09-03T02:14:15;101622.97;;;15.28;49.51
23016;BME280;11674;52.428;13.584;2022-09-03T02:16:57;101626.91;;;15.27;49.52
23016;BME280;11674;52.428;13.584;2022-09-03T02:19:30;101621.09;;;15.23;49.76
23016;BME280;11674;52.428;13.584;2022-09-03T02:22:09;101621.09;;;15.23;50.20
23016;BME280;11674;52.428;13.584;2022-09-03T02:24:41;101622.53;;;15.21;50.01
23016;BME280;11674;52.428;13.584;2022-09-03T02:27:13;101620.88;;;15.20;50.28
23016;BME280;11674;52.428;13.584;2022-09-03T02:29:46;101619.19;;;15.19;50.15
23016;BME280;11674;52.428;13.584;2022-09-03T02:32:18;101627.88;;;15.17;50.61
23016;BME280;11674;52.428;13.584;2022-09-03T02:34:50;101618.13;;;15.15;50.35
23016;BME280;11674;52.428;13.584;2022-09-03T02:37:22;101623.16;;;15.13;50.55
23016;BME280;11674;52.428;13.584;2022-09-03T02:39:54;101617.34;;;15.09;50.71
23016;BME280;11674;52.428;13.584;2022-09-03T02:42:26;101620.72;;;15.06;50.97
23016;BME280;11674;52.428;13.584;2022-09-03T02:45:22;101618.56;;;15.03;51.10
23016;BME280;11674;52.428;13.584;2022-09-03T02:47:56;101625.88;;;14.99;51.15
23016;BME280;11674;52.428;13.584;2022-09-03T02:50:29;101618.91;;;14.97;51.10
23016;BME280;11674;52.428;13.584;2022-09-03T02:53:01;101617.53;;;14.94;51.21
23016;BME280;11674;52.428;13.584;2022-09-03T02:55:33;101618.97;;;14.92;51.17
23016;BME280;11674;52.428;13.584;2022-09-03T02:58:05;101619.59;;;14.89;51.51
23016;BME280;11674;52.428;13.584;2022-09-03T03:00:37;101622.66;;;14.87;51.14
23016;BME280;11674;52.428;13.584;2022-09-03T03:03:09;101621.59;;;14.83;51.26
23016;BME280;11674;52.428;13.584;2022-09-03T03:05:44;101624.16;;;14.80;51.61
23016;BME280;11674;52.428;13.584;2022-09-03T03:08:19;101630.88;;;14.79;51.55
23016;BME280;11674;52.428;13.584;2022-09-03T03:10:52;101621.13;;;14.76;51.60
23016;BME280;11674;52.428;13.584;2022-09-03T03:13:27;101613.88;;;14.75;51.75
23016;BME280;11674;52.428;13.584;2022-09-03T03:16:01;101616.69;;;14.75;51.82
23016;BME280;11674;52.428;13.584;2022-09-03T03:18:33;101615.31;;;14.73;51.79
23016;BME280;11674;52.428;13.584;2022-09-03T03:21:10;101620.34;;;14.71;51.81
23016;BME280;11674;52.428;13.584;2022-09-03T03:23:42;101623.47;;;14.69;51.91
23016;BME280;11674;52.428;13.584;2022-09-03T03:26:17;101626.53;;;14.68;52.02
23016;BME280;11674;52.428;13.584;2022-09-03T03:28:55;101619.28;;;14.67;52.38
23016;BME280;11674;52.428;13.584;2022-09-03T03:31:27;101624.88;;;14.67;52.27
23016;BME280;11674;52.428;13.584;2022-09-03T03:34:01;101614.81;;;14.66;52.30
23016;BME280;11674;52.428;13.584;2022-09-03T03:36:34;101633.25;;;14.67;52.57
23016;BME280;11674;52.428;13.584;2022-09-03T03:39:06;101639.94;;;14.66;52.15
23016;BME280;11674;52.428;13.584;2022-09-03T03:41:38;101640.28;;;14.64;52.58
23016;BME280;11674;52.428;13.584;2022-09-03T03:44:10;101641.69;;;14.62;52.39
23016;BME280;11674;52.428;13.584;2022-09-03T03:46:42;101644.78;;;14.60;52.75
23016;BME280;11674;52.428;13.584;2022-09-03T03:49:14;101643.41;;;14.58;52.78
23016;BME280;11674;52.428;13.584;2022-09-03T03:51:46;101638.09;;;14.56;52.69
23016;BME280;11674;52.428;13.584;2022-09-03T03:54:18;101636.72;;;14.54;52.95
23016;BME280;11674;52.428;13.584;2022-09-03T03:56:50;101639.53;;;14.54;52.55
23016;BME280;11674;52.428;13.584;2022-09-03T03:59:22;101636.72;;;14.54;52.59
23016;BME280;11674;52.428;13.584;2022-09-03T04:01:54;101635.06;;;14.53;53.01
23016;BME280;11674;52.428;13.584;2022-09-03T04:04:26;101640.66;;;14.53;53.02
23016;BME280;11674;52.428;13.584;2022-09-03T04:06:58;101637.88;;;14.53;52.70
23016;BME280;11674;52.428;13.584;2022-09-03T04:09:30;101633.41;;;14.52;52.91
23016;BME280;11674;52.428;13.584;2022-09-03T04:11:55;101637.88;;;14.53;53.07
23016;BME280;11674;52.428;13.584;2022-09-03T04:14:27;101631.16;;;14.54;53.20
23016;BME280;11674;52.428;13.584;2022-09-03T04:17:00;101634.78;;;14.54;53.03
23016;BME280;11674;52.428;13.584;2022-09-03T04:19:32;101638.94;;;14.57;53.17
23016;BME280;11674;52.428;13.584;2022-09-03T04:22:04;101629.16;;;14.59;53.34
23016;BME280;11674;52.428;13.584;2022-09-03T04:24:36;101636.91;;;14.62;53.20
23016;BME280;11674;52.428;13.584;2022-09-03T04:27:08;101632.19;;;14.63;53.14
23016;BME280;11674;52.428;13.584;2022-09-03T04:29:40;101628.78;;;14.66;53.07
23016;BME280;11674;52.428;13.584;2022-09-03T04:32:12;101628.50;;;14.67;53.47
23016;BME280;11674;52.428;13.584;2022-09-03T04:34:44;101631.00;;;14.69;53.11
23016;BME280;11674;52.428;13.584;2022-09-03T04:37:16;101637.66;;;14.73;53.51
23016;BME280;11674;52.428;13.584;2022-09-03T04:39:48;101629.28;;;14.73;53.43
23016;BME280;11674;52.428;13.584;2022-09-03T04:42:20;101625.88;;;14.76;53.65
23016;BME280;11674;52.428;13.584;2022-09-03T04:44:52;101618.03;;;14.78;53.58
23016;BME280;11674;52.428;13.584;2022-09-03T04:47:24;101626.09;;;14.79;53.65
23016;BME280;11674;52.428;13.584;2022-09-03T04:49:57;101618.03;;;14.78;53.63
23016;BME280;11674;52.428;13.584;2022-09-03T04:52:28;101623.63;;;14.78;53.55
23016;BME280;11674;52.428;13.584;2022-09-03T04:55:00;101631.69;;;14.79;53.54
23016;BME280;11674;52.428;13.584;2022-09-03T04:57:33;101628.31;;;14.82;53.54
23016;BME280;11674;52.428;13.584;2022-09-03T05:00:06;101625.22;;;14.84;53.81
23016;BME280;11674;52.428;13.584;2022-09-03T05:02:37;101627.75;;;14.85;53.88
23016;BME280;11674;52.428;13.584;2022-09-03T05:05:09;101627.41;;;14.87;53.59
23016;BME280;11674;52.428;13.584;2022-09-03T05:07:41;101638.59;;;14.87;53.75
23016;BME280;11674;52.428;13.584;2022-09-03T05:10:13;101638.59;;;14.87;53.84
23016;BME280;11674;52.428;13.584;2022-09-03T05:12:46;101637.47;;;14.88;53.98
23016;BME280;11674;52.428;13.584;2022-09-03T05:15:18;101641.09;;;14.88;53.80
23016;BME280;11674;52.428;13.584;2022-09-03T05:17:55;101634.69;;;14.88;53.86
23016;BME280;11674;52.428;13.584;2022-09-03T05:20:27;101641.94;;;14.89;53.63
23016;BME280;11674;52.428;13.584;2022-09-03T05:23:03;101643.88;;;14.88;54.00
23016;BME280;11674;52.428;13.584;2022-09-03T05:25:34;101632.72;;;14.88;53.70
23016;BME280;11674;52.428;13.584;2022-09-03T05:28:06;101638.81;;;14.90;54.10
23016;BME280;11674;52.428;13.584;2022-09-03T05:30:38;101637.09;;;14.94;53.99
23016;BME280;11674;52.428;13.584;2022-09-03T05:33:10;101635.16;;;14.95;53.82
23016;BME280;11674;52.428;13.584;2022-09-03T05:35:42;101646.03;;;14.96;53.91
23016;BME280;11674;52.428;13.584;2022-09-03T05:38:14;101641.81;;;14.99;54.02
23016;BME280;11674;52.428;13.584;2022-09-03T05:40:46;101644.28;;;15.00;53.92
23016;BME280;11674;52.428;13.584;2022-09-03T05:43:18;101640.91;;;15.03;54.03
23016;BME280;11674;52.428;13.584;2022-09-03T05:45:50;101643.66;;;15.08;54.06
23016;BME280;11674;52.428;13.584;2022-09-03T05:48:22;101644.72;;;15.12;53.80
23016;BME280;11674;52.428;13.584;2022-09-03T05:53:34;101652.44;;;15.20;54.26
23016;BME280;11674;52.428;13.584;2022-09-03T05:56:09;101651.00;;;15.23;53.95
23016;BME280;11674;52.428;13.584;2022-09-03T05:58:42;101643.06;;;15.30;54.34
23016;BME280;11674;52.428;13.584;2022-09-03T06:01:23;101651.66;;;15.38;54.36
23016;BME280;11674;52.428;13.584;2022-09-03T06:04:03;101649.84;;;15.47;54.23
23016;BME280;11674;52.428;13.584;2022-09-03T06:06:38;101642.69;;;15.60;54.26
23016;BME280;11674;52.428;13.584;2022-09-03T06:09:15;101642.31;;;15.66;53.92
23016;BME280;11674;52.428;13.584;2022-09-03T06:11:48;101653.19;;;15.68;54.01
23016;BME280;11674;52.428;13.584;2022-09-03T06:14:20;101653.19;;;15.68;54.25
23016;BME280;11674;52.428;13.584;2022-09-03T06:16:52;101645.53;;;15.73;53.86
23016;BME280;11674;52.428;13.584;2022-09-03T06:19:24;101635.72;;;15.76;53.82
23016;BME280;11674;52.428;13.584;2022-09-03T06:21:56;101644.03;;;15.81;53.82
23016;BME280;11674;52.428;13.584;2022-09-03T06:24:28;101632.75;;;15.86;54.13
23016;BME280;11674;52.428;13.584;2022-09-03T06:27:00;101635.19;;;15.92;53.99
23016;BME280;11674;52.428;13.584;2022-09-03T06:29:32;101639.84;;;15.97;53.70
23016;BME280;11674;52.428;13.584;2022-09-03T06:32:04;101639.78;;;16.02;53.85
23016;BME280;11674;52.428;13.584;2022-09-03T06:34:36;101643.09;;;16.04;54.00
23016;BME280;11674;52.428;13.584;2022-09-03T06:37:08;101637.69;;;16.07;54.02
23016;BME280;11674;52.428;13.584;2022-09-03T06:39:40;101639.31;;;16.13;53.68
23016;BME280;11674;52.428;13.584;2022-09-03T06:42:12;101644.41;;;16.25;53.92
23016;BME280;11674;52.428;13.584;2022-09-03T06:44:47;101641.13;;;16.36;53.81
23016;BME280;11674;52.428;13.584;2022-09-03T06:47:19;101650.09;;;16.52;53.62
23016;BME280;11674;52.428;13.584;2022-09-03T06:49:51;101643.38;;;16.66;53.75
23016;BME280;11674;52.428;13.584;2022-09-03T06:52:23;101653.69;;;16.71;53.69
23016;BME280;11674;52.428;13.584;2022-09-03T06:54:55;101650.69;;;16.81;53.68
23016;BME280;11674;52.428;13.584;2022-09-03T06:57:27;101641.84;;;16.87;53.56
23016;BME280;11674;52.428;13.584;2022-09-03T06:59:59;101650.59;;;16.99;53.33
23016;BME280;11674;52.428;13.584;2022-09-03T07:02:31;101647.44;;;17.14;53.33
23016;BME280;11674;52.428;13.584;2022-09-03T07:05:03;101640.81;;;17.24;53.30
23016;BME280;11674;52.428;13.584;2022-09-03T07:07:35;101643.41;;;17.34;53.01
23016;BME280;11674;52.428;13.584;2022-09-03T07:10:07;101650.69;;;17.48;53.11
23016;BME280;11674;52.428;13.584;2022-09-03T07:12:39;101639.09;;;17.63;52.56
23016;BME280;11674;52.428;13.584;2022-09-03T07:15:11;101641.34;;;17.75;52.85
23016;BME280;11674;52.428;13.584;2022-09-03T07:17:43;101642.97;;;17.89;52.33
23016;BME280;11674;52.428;13.584;2022-09-03T07:20:15;101645.72;;;18.03;52.20
23016;BME280;11674;52.428;13.584;2022-09-03T07:22:47;101640.19;;;18.11;52.30
23016;BME280;11674;52.428;13.584;2022-09-03T07:25:19;101643.03;;;18.20;52.15
23016;BME280;11674;52.428;13.584;2022-09-03T07:27:51;101639.03;;;18.34;51.89
23016;BME280;11674;52.428;13.584;2022-09-03T07:30:23;101646.53;;;18.47;51.61
23016;BME280;11674;52.428;13.584;2022-09-03T07:32:56;101644.00;;;18.59;51.80
23016;BME280;11674;52.428;13.584;2022-09-03T07:35:28;101644.56;;;18.78;51.30
23016;BME280;11674;52.428;13.584;2022-09-03T07:38:00;101648.63;;;18.94;51.37
23016;BME280;11674;52.428;13.584;2022-09-03T07:40:32;101645.34;;;19.01;50.79
23016;BME280;11674;52.428;13.584;2022-09-03T07:43:04;101644.34;;;19.05;50.71
23016;BME280;11674;52.428;13.584;2022-09-03T07:45:36;101651.84;;;19.10;50.42
23016;BME280;11674;52.428;13.584;2022-09-03T07:48:08;101651.16;;;19.13;50.12
23016;BME280;11674;52.428;13.584;2022-09-03T07:50:40;101654.03;;;19.21;50.23
23016;BME280;11674;52.428;13.584;2022-09-03T07:53:12;101654.59;;;19.32;50.20
23016;BME280;11674;52.428;13.584;2022-09-03T07:55:44;101658.75;;;19.43;49.70
23016;BME280;11674;52.428;13.584;2022-09-03T07:58:16;101657.91;;;19.51;49.82
23016;BME280;11674;52.428;13.584;2022-09-03T08:00:48;101657.75;;;19.56;49.47
23016;BME280;11674;52.428;13.584;2022-09-03T08:03:20;101655.31;;;19.63;49.44
23016;BME280;11674;52.428;13.584;2022-09-03T08:05:52;101652.50;;;19.71;49.05
23016;BME280;11674;52.428;13.584;2022-09-03T08:08:24;101647.69;;;19.89;49.33
23016;BME280;11674;52.428;13.584;2022-09-03T08:11:05;101655.50;;;20.09;48.74
23016;BME280;11674;52.428;13.584;2022-09-03T08:13:39;101643.75;;;20.24;48.67
23016;BME280;11674;52.428;13.584;2022-09-03T08:16:12;101642.91;;;20.32;48.08
23016;BME280;11674;52.428;13.584;2022-09-03T08:18:44;101639.59;;;20.21;47.84
23016;BME280;11674;52.428;13.584;2022-09-03T08:21:18;101636.63;;;20.09;48.16
23016;BME280;11674;52.428;13.584;2022-09-03T08:23:57;101647.75;;;20.14;48.02
23016;BME280;11674;52.428;13.584;2022-09-03T08:26:31;101644.41;;;20.12;47.66
23016;BME280;11674;52.428;13.584;2022-09-03T08:29:04;101641.06;;;20.02;47.77
23016;BME280;11674;52.428;13.584;2022-09-03T08:31:36;101651.19;;;19.94;47.27
23016;BME280;11674;52.428;13.584;2022-09-03T08:34:08;101641.56;;;19.87;47.39
23016;BME280;11674;52.428;13.584;2022-09-03T08:36:40;101636.25;;;19.85;47.45
23016;BME280;11674;52.428;13.584;2022-09-03T08:39:12;101644.88;;;19.89;47.64
23016;BME280;11674;52.428;13.584;2022-09-03T08:42:16;101640.56;;;19.91;47.08
23016;BME280;11674;52.428;13.584;2022-09-03T08:44:54;101642.06;;;19.89;47.34
23016;BME280;11674;52.428;13.584;2022-09-03T08:47:33;101636.94;;;19.91;47.09
23016;BME280;11674;52.428;13.584;2022-09-03T08:50:26;101634.44;;;19.98;47.34
23016;BME280;11674;52.428;13.584;2022-09-03T08:53:18;101634.13;;;20.08;47.35
23016;BME280;11674;52.428;13.584;2022-09-03T08:55:59;101627.31;;;20.17;47.04
23016;BME280;11674;52.428;13.584;2022-09-03T08:58:34;101625.81;;;20.28;47.23
23016;BME280;11674;52.428;13.584;2022-09-03T09:03:54;101626.28;;;20.47;46.78
23016;BME280;11674;52.428;13.584;2022-09-03T09:21:17;101601.28;;;20.83;45.31
23016;BME280;11674;52.428;13.584;2022-09-03T09:23:51;101607.56;;;20.89;45.50
23016;BME280;11674;52.428;13.584;2022-09-03T09:26:26;101590.47;;;20.94;45.02
23016;BME280;11674;52.428;13.584;2022-09-03T09:29:03;101592.44;;;21.02;45.08
23016;BME280;11674;52.428;13.584;2022-09-03T09:34:10;101604.59;;;21.23;45.14
23016;BME280;11674;52.428;13.584;2022-09-03T09:36:46;101586.28;;;21.29;44.69
23016;BME280;11674;52.428;13.584;2022-09-03T09:39:19;101589.09;;;21.29;44.72
23016;BME280;11674;52.428;13.584;2022-09-03T09:41:59;101589.38;;;21.36;44.19
23016;BME280;11674;52.428;13.584;2022-09-03T09:44:31;101581.19;;;21.43;44.38
23016;BME280;11674;52.428;13.584;2022-09-03T09:47:06;101581.75;;;21.57;43.99
23016;BME280;11674;52.428;13.584;2022-09-03T09:50:00;101576.69;;;21.71;44.11
23016;BME280;11674;52.428;13.584;2022-09-03T09:52:32;101578.28;;;21.80;43.81
23016;BME280;11674;52.428;13.584;2022-09-03T09:55:18;101575.63;;;21.96;43.62
23016;BME280;11674;52.428;13.584;2022-09-03T09:57:52;101570.59;;;22.01;43.28
23016;BME280;11674;52.428;13.584;2022-09-03T10:00:24;101581.06;;;22.01;42.54
23016;BME280;11674;52.428;13.584;2022-09-03T10:02:56;101576.47;;;21.96;42.46
23016;BME280;11674;52.428;13.584;2022-09-03T10:05:30;101563.84;;;21.94;42.04
23016;BME280;11674;52.428;13.584;2022-09-03T10:08:19;101562.66;;;21.95;41.69
23016;BME280;11674;52.428;13.584;2022-09-03T10:10:51;101561.69;;;22.11;41.63
23016;BME280;11674;52.428;13.584;2022-09-03T10:13:32;101548.16;;;22.29;41.61
23016;BME280;11674;52.428;13.584;2022-09-03T10:16:29;101552.94;;;22.49;40.96
23016;BME280;11674;52.428;13.584;2022-09-03T10:19:16;101550.63;;;22.63;40.52
23016;BME280;11674;52.428;13.584;2022-09-03T10:22:02;101557.19;;;22.55;40.39
23016;BME280;11674;52.428;13.584;2022-09-03T10:24:38;101558.38;;;22.54;40.85
23016;BME280;11674;52.428;13.584;2022-09-03T10:27:15;101557.19;;;22.55;40.77
23016;BME280;11674;52.428;13.584;2022-09-03T10:29:48;101543.66;;;22.60;40.60
23016;BME280;11674;52.428;13.584;2022-09-03T10:37:38;101556.41;;;23.14;39.57
23016;BME280;11674;52.428;13.584;2022-09-03T10:46:14;101551.91;;;23.49;38.71
23016;BME280;11674;52.428;13.584;2022-09-03T10:49:19;101546.69;;;23.51;38.50
23016;BME280;11674;52.428;13.584;2022-09-03T10:52:27;101553.53;;;23.50;38.27
23016;BME280;11674;52.428;13.584;2022-09-03T10:55:17;101547.97;;;23.54;38.48
23016;BME280;11674;52.428;13.584;2022-09-03T11:01:02;101525.22;;;23.78;38.10
23016;BME280;11674;52.428;13.584;2022-09-03T11:03:52;101527.03;;;23.98;37.92
23016;BME280;11674;52.428;13.584;2022-09-03T11:06:39;101516.28;;;24.03;37.27
23016;BME280;11674;52.428;13.584;2022-09-03T11:09:19;101521.97;;;24.03;37.04
23016;BME280;11674;52.428;13.584;2022-09-03T11:11:59;101514.75;;;24.06;36.85
23016;BME280;11674;52.428;13.584;2022-09-03T11:14:38;101506.59;;;24.04;36.25
23016;BME280;11674;52.428;13.584;2022-09-03T11:17:21;101509.88;;;24.06;36.07
23016;BME280;11674;52.428;13.584;2022-09-03T11:22:32;101503.88;;;24.39;35.95
23016;BME280;11674;52.428;13.584;2022-09-03T11:25:05;101505.84;;;24.66;35.65
23016;BME280;11674;52.428;13.584;2022-09-03T11:30:22;101490.94;;;25.38;34.24
23016;BME280;11674;52.428;13.584;2022-09-03T11:32:59;101484.09;;;25.58;34.51
23016;BME280;11674;52.428;13.584;2022-09-03T11:38:20;101482.22;;;25.84;33.56
23016;BME280;11674;52.428;13.584;2022-09-03T11:43:32;101490.66;;;26.19;33.47
23016;BME280;11674;52.428;13.584;2022-09-03T11:48:42;101482.94;;;26.42;32.82
23016;BME280;11674;52.428;13.584;2022-09-03T11:53:59;101485.28;;;26.59;32.50
23016;BME280;11674;52.428;13.584;2022-09-03T11:56:33;101482.16;;;26.45;32.59
23016;BME280;11674;52.428;13.584;2022-09-03T12:01:55;101472.41;;;26.01;32.17
23016;BME280;11674;52.428;13.584;2022-09-03T12:04:39;101476.44;;;25.81;32.33
23016;BME280;11674;52.428;13.584;2022-09-03T12:07:50;101483.56;;;25.71;32.25
23016;BME280;11674;52.428;13.584;2022-09-03T12:11:05;101473.97;;;25.60;32.28
23016;BME280;11674;52.428;13.584;2022-09-03T12:22:27;101446.97;;;25.32;32.19
23016;BME280;11674;52.428;13.584;2022-09-03T12:25:11;101454.00;;;25.95;31.74
23016;BME280;11674;52.428;13.584;2022-09-03T12:27:45;101453.09;;;26.81;30.80
23016;BME280;11674;52.428;13.584;2022-09-03T12:30:20;101446.66;;;26.84;30.55
23016;BME280;11674;52.428;13.584;2022-09-03T12:33:03;101466.69;;;26.65;30.65
23016;BME280;11674;52.428;13.584;2022-09-03T12:35:35;101461.53;;;26.51;30.89
23016;BME280;11674;52.428;13.584;2022-09-03T12:38:07;101458.38;;;26.34;30.95
23016;BME280;11674;52.428;13.584;2022-09-03T12:40:42;101456.34;;;26.12;30.85
23016;BME280;11674;52.428;13.584;2022-09-03T12:43:16;101439.91;;;25.83;31.03
23016;BME280;11674;52.428;13.584;2022-09-03T12:45:48;101446.09;;;25.47;31.08
23016;BME280;11674;52.428;13.584;2022-09-03T12:48:21;101438.31;;;25.25;31.15
23016;BME280;11674;52.428;13.584;2022-09-03T12:51:01;101435.66;;;25.35;31.05
23016;BME280;11674;52.428;13.584;2022-09-03T12:53:32;101436.94;;;25.95;31.26
23016;BME280;11674;52.428;13.584;2022-09-03T12:56:04;101429.00;;;26.52;30.84
23016;BME280;11674;52.428;13.584;2022-09-03T12:58:55;101428.94;;;26.49;30.32
23016;BME280;11674;52.428;13.584;2022-09-03T13:01:43;101434.28;;;26.28;30.89
23016;BME280;11674;52.428;13.584;2022-09-03T13:04:32;101426.50;;;26.02;31.21
23016;BME280;11674;52.428;13.584;2022-09-03T13:07:14;101436.84;;;25.72;31.16
23016;BME280;11674;52.428;13.584;2022-09-03T13:09:59;101425.28;;;25.43;30.95
23016;BME280;11674;52.428;13.584;2022-09-03T13:12:43;101419.94;;;25.22;31.04
23016;BME280;11674;52.428;13.584;2022-09-03T13:15:26;101424.94;;;25.25;30.97
23016;BME280;11674;52.428;13.584;2022-09-03T13:18:52;101418.84;;;25.27;31.19
23016;BME280;11674;52.428;13.584;2022-09-03T13:27:08;101424.31;;;25.01;31.09
23016;BME280;11674;52.428;13.584;2022-09-03T13:32:55;101425.16;;;24.67;31.30
23016;BME280;11674;52.428;13.584;2022-09-03T13:41:11;101416.00;;;24.58;31.60
23016;BME280;11674;52.428;13.584;2022-09-03T13:43:56;101411.69;;;24.98;31.11
23016;BME280;11674;52.428;13.584;2022-09-03T13:46:45;101410.97;;;25.20;31.13
23016;BME280;11674;52.428;13.584;2022-09-03T13:49:33;101410.38;;;25.30;30.91
23016;BME280;11674;52.428;13.584;2022-09-03T13:52:36;101415.47;;;25.21;30.54
23016;BME280;11674;52.428;13.584;2022-09-03T13:55:11;101403.03;;;25.10;30.98
23016;BME280;11674;52.428;13.584;2022-09-03T13:57:49;101401.84;;;25.11;30.91
23016;BME280;11674;52.428;13.584;2022-09-03T14:00:29;101405.72;;;25.03;31.07
23016;BME280;11674;52.428;13.584;2022-09-03T14:06:41;101402.38;;;24.82;31.19
23016;BME280;11674;52.428;13.584;2022-09-03T14:09:32;101402.88;;;24.84;31.40
23016;BME280;11674;52.428;13.584;2022-09-03T14:12:16;101397.53;;;24.83;31.15
23016;BME280;11674;52.428;13.584;2022-09-03T14:15:06;101390.91;;;25.13;31.26
23016;BME280;11674;52.428;13.584;2022-09-03T14:20:23;101389.50;;;26.25;30.69
23016;BME280;11674;52.428;13.584;2022-09-03T14:26:02;101378.91;;;26.48;30.24
23016;BME280;11674;52.428;13.584;2022-09-03T14:28:40;101375.31;;;26.51;29.90
23016;BME280;11674;52.428;13.584;2022-09-03T14:34:00;101379.03;;;26.06;30.08
23016;BME280;11674;52.428;13.584;2022-09-03T14:41:56;101379.97;;;25.31;30.36
23016;BME280;11674;52.428;13.584;2022-09-03T14:47:42;101382.22;;;25.41;30.44
23016;BME280;11674;52.428;13.584;2022-09-03T14:57:02;101375.69;;;25.40;30.31
23016;BME280;11674;52.428;13.584;2022-09-03T15:00:01;101367.34;;;25.28;30.74
23016;BME280;11674;52.428;13.584;2022-09-03T15:08:18;101377.56;;;25.33;30.35
23016;BME280;11674;52.428;13.584;2022-09-03T15:11:02;101364.56;;;25.32;30.40
23016;BME280;11674;52.428;13.584;2022-09-03T15:13:44;101368.00;;;25.41;30.64
23016;BME280;11674;52.428;13.584;2022-09-03T15:16:42;101360.81;;;25.47;30.74
23016;BME280;11674;52.428;13.584;2022-09-03T15:19:25;101363.94;;;25.42;31.07
23016;BME280;11674;52.428;13.584;2022-09-03T15:27:50;101356.97;;;25.58;30.82
23016;BME280;11674;52.428;13.584;2022-09-03T15:30:33;101354.31;;;25.69;30.58
23016;BME280;11674;52.428;13.584;2022-09-03T15:35:59;101369.31;;;25.88;30.45
23016;BME280;11674;52.428;13.584;2022-09-03T15:38:41;101354.16;;;26.03;30.56
23016;BME280;11674;52.428;13.584;2022-09-03T15:41:30;101359.22;;;26.13;30.18
23016;BME280;11674;52.428;13.584;2022-09-03T15:44:10;101366.19;;;26.16;30.20
23016;BME280;11674;52.428;13.584;2022-09-03T15:55:39;101372.19;;;26.11;30.23
23016;BME280;11674;52.428;13.584;2022-09-03T16:01:39;101377.00;;;25.65;30.56
23016;BME280;11674;52.428;13.584;2022-09-03T16:07:00;101379.66;;;25.77;30.50
23016;BME280;11674;52.428;13.584;2022-09-03T16:15:09;101368.75;;;25.79;30.59
23016;BME280;11674;52.428;13.584;2022-09-03T16:20:55;101370.16;;;25.89;30.33
23016;BME280;11674;52.428;13.584;2022-09-03T16:23:53;101377.19;;;25.95;30.59
23016;BME280;11674;52.428;13.584;2022-09-03T16:26:50;101383.47;;;26.04;30.40
23016;BME280;11674;52.428;13.584;2022-09-03T16:29:27;101374.47;;;26.02;30.26
23016;BME280;11674;52.428;13.584;2022-09-03T17:04:26;101383.19;;;23.95;32.17
23016;BME280;11674;52.428;13.584;2022-09-03T17:07:28;101373.28;;;23.89;32.29
23016;BME280;11674;52.428;13.584;2022-09-03T17:15:34;101387.69;;;23.68;32.52
23016;BME280;11674;52.428;13.584;2022-09-03T17:18:25;101384.19;;;23.59;32.64
23016;BME280;11674;52.428;13.584;2022-09-03T17:38:24;101398.06;;;23.21;33.27
23016;BME280;11674;52.428;13.584;2022-09-03T17:43:54;101389.03;;;23.04;33.07
23016;BME280;11674;52.428;13.584;2022-09-03T17:49:31;101391.66;;;22.85;33.36
23016;BME280;11674;52.428;13.584;2022-09-03T18:00:37;101411.63;;;22.64;33.88
23016;BME280;11674;52.428;13.584;2022-09-03T18:03:22;101418.22;;;22.56;34.11
23016;BME280;11674;52.428;13.584;2022-09-03T18:06:03;101417.66;;;22.51;33.89
23016;BME280;11674;52.428;13.584;2022-09-03T18:08:58;101418.25;;;22.44;34.35
23016;BME280;11674;52.428;13.584;2022-09-03T18:11:36;101426.94;;;22.39;34.40